Time;durP1;ratioP1;P1;durP2;ratioP2;P2;SDS_P1;SDS_P2;PMS_P1;PMS_P2;Temp;Humidity;BMP_temperature;BMP_pressure;BME280_temperature;BME280_humidity;BME280_pressure;Samples;Min_cycle;Max_cycle;Signal;HPM_P1;HPM_P2
2023/04/19 00:01:03;;;;;;;;;;;;;;;8.14;70.88;98633.31;5065490;28;19920;-56
2023/04/19 00:03:31;;;;;;;;;;;;;;;8.14;71.11;98626.00;5070276;28;20261;-60
2023/04/19 00:05:59;;;;;;;;;;;;;;;8.22;70.90;98627.34;5069669;28;20384;-57
2023/04/19 00:08:27;;;;;;;;;;;;;;;8.18;71.04;98620.88;5069117;28;19944;-56
2023/04/19 00:10:55;;;;;;;;;;;;;;;8.12;71.13;98613.84;5070703;28;19952;-59
2023/04/19 00:13:24;;;;;;;;;;;;;;;8.16;71.16;98617.63;5068557;28;19924;-57
2023/04/19 00:15:52;;;;;;;;;;;;;;;8.12;71.01;98613.84;5067403;28;19927;-57
2023/04/19 00:18:22;;;;;;;;;;;;;;;8.09;71.20;98614.41;5067913;28;19920;-60
2023/04/19 00:20:50;;;;;;;;;;;;;;;8.01;71.56;98612.28;5066333;28;19920;-57
2023/04/19 00:23:18;;;;;;;;;;;;;;;7.95;71.72;98608.00;5073126;28;19921;-57
2023/04/19 00:25:46;;;;;;;;;;;;;;;7.91;72.06;98612.31;5066566;28;19936;-56
2023/04/19 00:28:14;;;;;;;;;;;;;;;7.87;72.33;98612.06;5067411;28;19921;-56
2023/04/19 00:30:44;;;;;;;;;;;;;;;7.80;72.66;98616.97;5057352;28;20442;-56
2023/04/19 00:33:12;;;;;;;;;;;;;;;7.80;72.65;98611.56;5069342;28;19924;-58
2023/04/19 00:35:40;;;;;;;;;;;;;;;7.76;72.99;98603.16;5063037;28;19921;-57
2023/04/19 00:38:08;;;;;;;;;;;;;;;7.84;72.44;98607.22;5058514;28;19920;-56
2023/04/19 00:40:36;;;;;;;;;;;;;;;7.77;72.60;98607.50;5081933;28;19921;-56
2023/04/19 00:43:04;;;;;;;;;;;;;;;7.79;72.46;98599.94;5063267;28;19924;-56
2023/04/19 00:45:33;;;;;;;;;;;;;;;7.63;72.94;98598.34;5062284;28;19935;-56
2023/04/19 00:48:03;;;;;;;;;;;;;;;7.63;72.88;98595.66;5057202;28;19920;-56
2023/04/19 00:50:30;;;;;;;;;;;;;;;7.56;73.52;98606.78;5060845;28;19927;-57
2023/04/19 00:52:58;;;;;;;;;;;;;;;7.68;73.23;98601.06;5065779;28;19925;-56
2023/04/19 00:55:26;;;;;;;;;;;;;;;7.66;72.92;98597.00;5056957;28;19928;-57
2023/04/19 00:57:54;;;;;;;;;;;;;;;7.64;72.96;98596.47;5064766;28;19932;-56
2023/04/19 01:00:22;;;;;;;;;;;;;;;7.80;72.31;98595.31;5063346;28;19946;-56
2023/04/19 01:02:51;;;;;;;;;;;;;;;7.85;72.20;98589.91;5063503;28;19920;-56
2023/04/19 01:05:20;;;;;;;;;;;;;;;7.66;72.47;98595.09;5064896;28;19925;-57
2023/04/19 01:07:48;;;;;;;;;;;;;;;7.72;72.69;98583.16;5067356;28;19924;-56
2023/04/19 01:10:16;;;;;;;;;;;;;;;7.79;72.36;98583.69;5066312;28;19920;-57
2023/04/19 01:12:44;;;;;;;;;;;;;;;7.59;72.79;98586.47;5055311;28;19920;-56
2023/04/19 01:15:12;;;;;;;;;;;;;;;7.55;73.34;98579.97;5061672;28;19940;-56
2023/04/19 01:17:41;;;;;;;;;;;;;;;7.53;73.49;98584.88;5060698;28;19920;-56
2023/04/19 01:20:12;;;;;;;;;;;;;;;7.49;73.67;98583.78;5066552;28;19932;-56
2023/04/19 01:22:41;;;;;;;;;;;;;;;7.60;73.44;98582.66;5064397;28;19927;-57
2023/04/19 01:25:10;;;;;;;;;;;;;;;7.64;73.39;98580.22;5064525;28;19920;-56
2023/04/19 01:27:37;;;;;;;;;;;;;;;7.59;73.09;98579.16;5065114;28;19929;-57
2023/04/19 01:30:06;;;;;;;;;;;;;;;7.56;73.26;98578.88;5060585;28;19920;-56
2023/04/19 01:32:34;;;;;;;;;;;;;;;7.56;73.28;98570.78;5059866;28;19932;-57
2023/04/19 01:35:02;;;;;;;;;;;;;;;7.61;73.06;98566.16;5059839;28;20016;-57
2023/04/19 01:37:34;;;;;;;;;;;;;;;7.57;73.39;98565.13;5062823;28;20019;-57
2023/04/19 01:40:05;;;;;;;;;;;;;;;7.56;73.76;98566.22;5061076;28;19928;-57
2023/04/19 01:42:32;;;;;;;;;;;;;;;7.55;73.79;98558.34;5069332;28;19940;-57
2023/04/19 01:45:00;;;;;;;;;;;;;;;7.55;73.66;98555.66;5063551;28;19921;-61
2023/04/19 01:47:28;;;;;;;;;;;;;;;7.60;73.57;98561.84;5056975;28;19928;-58
2023/04/19 01:49:56;;;;;;;;;;;;;;;7.55;73.54;98558.34;5059096;28;19921;-56
2023/04/19 01:52:24;;;;;;;;;;;;;;;7.56;73.57;98562.66;5064442;28;19920;-56
2023/04/19 01:54:51;;;;;;;;;;;;;;;7.48;73.71;98552.44;5060263;28;19925;-62
2023/04/19 01:57:23;;;;;;;;;;;;;;;7.44;73.71;98559.47;5065602;28;19925;-57
2023/04/19 01:59:50;;;;;;;;;;;;;;;7.32;74.08;98552.47;5066032;28;19924;-59
2023/04/19 02:02:18;;;;;;;;;;;;;;;7.18;75.02;98550.59;5071373;28;19963;-56
2023/04/19 02:04:46;;;;;;;;;;;;;;;7.21;75.23;98548.19;5070929;28;19976;-56
2023/04/19 02:07:15;;;;;;;;;;;;;;;7.19;75.33;98553.06;5065018;28;19929;-57
2023/04/19 02:09:42;;;;;;;;;;;;;;;7.17;75.36;98554.41;5073098;28;19920;-58
2023/04/19 02:12:11;;;;;;;;;;;;;;;7.12;75.37;98546.31;5070418;28;19924;-56
2023/04/19 02:14:41;;;;;;;;;;;;;;;7.14;75.47;98544.97;5066351;28;19920;-56
2023/04/19 02:17:09;;;;;;;;;;;;;;;7.22;75.33;98549.00;5065404;28;19924;-56
2023/04/19 02:19:39;;;;;;;;;;;;;;;7.21;75.17;98544.66;5072671;28;19951;-56
2023/04/19 02:22:07;;;;;;;;;;;;;;;7.15;75.17;98535.75;5070304;28;19932;-60
2023/04/19 02:24:35;;;;;;;;;;;;;;;7.11;75.30;98540.09;5074124;28;19924;-56
2023/04/19 02:27:03;;;;;;;;;;;;;;;7.18;75.38;98532.50;5072284;28;19920;-57
2023/04/19 02:29:32;;;;;;;;;;;;;;;7.06;75.44;98527.41;5065917;28;20383;-61
2023/04/19 02:32:04;;;;;;;;;;;;;;;7.17;74.93;98528.19;5071267;28;19920;-60
2023/04/19 02:34:32;;;;;;;;;;;;;;;7.13;75.26;98527.09;5072200;28;19927;-56
2023/04/19 02:37:00;;;;;;;;;;;;;;;7.01;75.99;98523.91;5070335;28;19920;-56
2023/04/19 02:39:28;;;;;;;;;;;;;;;7.01;75.77;98524.69;5064877;28;19939;-55
2023/04/19 02:41:56;;;;;;;;;;;;;;;7.10;75.30;98522.25;5069670;28;19924;-56
2023/04/19 02:44:26;;;;;;;;;;;;;;;6.95;75.80;98525.00;5072477;28;19925;-56
2023/04/19 02:46:54;;;;;;;;;;;;;;;6.87;75.99;98520.13;5076780;28;19985;-56
2023/04/19 02:49:23;;;;;;;;;;;;;;;6.77;76.47;98515.56;5072134;28;19925;-57
2023/04/19 02:51:51;;;;;;;;;;;;;;;6.82;76.34;98521.78;5087449;28;19927;-59
2023/04/19 02:54:19;;;;;;;;;;;;;;;6.90;76.51;98519.59;5068364;28;19971;-55
2023/04/19 02:56:47;;;;;;;;;;;;;;;6.79;76.38;98522.31;5074458;28;19974;-57
2023/04/19 02:59:15;;;;;;;;;;;;;;;6.69;77.18;98516.91;5067995;28;19920;-55
2023/04/19 03:01:44;;;;;;;;;;;;;;;6.63;77.18;98515.28;5069658;28;19929;-57
2023/04/19 03:04:12;;;;;;;;;;;;;;;6.55;77.52;98500.47;5071543;28;19932;-56
2023/04/19 03:06:43;;;;;;;;;;;;;;;6.52;77.54;98498.28;5071866;28;19963;-59
2023/04/19 03:09:11;;;;;;;;;;;;;;;6.68;77.00;98499.09;5068248;28;20255;-58
2023/04/19 03:11:39;;;;;;;;;;;;;;;6.73;76.83;98499.09;5066049;28;19928;-58
2023/04/19 03:14:07;;;;;;;;;;;;;;;6.69;76.87;98500.69;5069305;28;19928;-56
2023/04/19 03:16:38;;;;;;;;;;;;;;;6.54;77.32;98498.00;5068324;28;20370;-56
2023/04/19 03:19:06;;;;;;;;;;;;;;;6.40;78.03;98489.66;5067432;28;19932;-56
2023/04/19 03:21:40;;;;;;;;;;;;;;;6.36;78.55;98487.75;5082817;28;20381;-56
2023/04/19 03:24:09;;;;;;;;;;;;;;;6.37;78.84;98487.50;5068721;28;20374;-57
2023/04/19 03:26:40;;;;;;;;;;;;;;;6.39;78.81;98489.91;5067976;28;19920;-56
2023/04/19 03:29:08;;;;;;;;;;;;;;;6.36;78.84;98485.06;5066503;28;19955;-57
2023/04/19 03:31:42;;;;;;;;;;;;;;;6.36;79.38;98479.66;5070426;28;19920;-57
2023/04/19 03:34:12;;;;;;;;;;;;;;;6.39;79.27;98477.25;5067325;28;19920;-56
2023/04/19 03:36:44;;;;;;;;;;;;;;;6.39;78.92;98463.75;5060405;28;20370;-56
2023/04/19 03:39:13;;;;;;;;;;;;;;;6.40;79.23;98470.75;5062034;28;19997;-56
2023/04/19 03:41:44;;;;;;;;;;;;;;;6.38;79.40;98469.41;5070969;28;19921;-59
2023/04/19 03:44:34;;;;;;;;;;;;;;;6.44;78.99;98465.63;5062006;28;20341;-56
2023/04/19 03:47:04;;;;;;;;;;;;;;;6.38;79.42;98470.22;5066517;28;19922;-56
2023/04/19 03:49:39;;;;;;;;;;;;;;;6.37;79.35;98463.19;5055582;28;19928;-57
2023/04/19 03:52:07;;;;;;;;;;;;;;;6.37;78.84;98459.69;5060252;28;19924;-56
2023/04/19 03:54:36;;;;;;;;;;;;;;;6.32;79.13;98457.81;5067207;28;19935;-56
2023/04/19 03:57:07;;;;;;;;;;;;;;;6.27;79.34;98458.59;5069852;28;19925;-56
2023/04/19 03:59:39;;;;;;;;;;;;;;;6.23;79.42;98454.00;5063080;28;19936;-56
2023/04/19 04:02:08;;;;;;;;;;;;;;;6.17;79.80;98455.91;5066245;28;19967;-56
2023/04/19 04:04:36;;;;;;;;;;;;;;;6.14;80.04;98464.56;5051565;28;19929;-56
2023/04/19 04:07:05;;;;;;;;;;;;;;;6.16;79.79;98465.06;5063655;28;19928;-57
2023/04/19 04:09:33;;;;;;;;;;;;;;;6.21;79.97;98459.69;5063357;28;20316;-56
2023/04/19 04:12:04;;;;;;;;;;;;;;;6.18;79.93;98462.94;5062679;28;19928;-57
2023/04/19 04:14:32;;;;;;;;;;;;;;;6.28;79.61;98460.25;5062264;28;19925;-58
2023/04/19 04:17:13;;;;;;;;;;;;;;;6.40;79.45;98464.56;5067975;28;19924;-56
2023/04/19 04:19:54;;;;;;;;;;;;;;;6.46;78.74;98464.28;5050160;28;19932;-57
2023/04/19 04:22:25;;;;;;;;;;;;;;;6.34;79.21;98465.63;5060351;28;19929;-56
2023/04/19 04:24:54;;;;;;;;;;;;;;;6.40;79.05;98459.16;5064099;28;19940;-56
2023/04/19 04:27:32;;;;;;;;;;;;;;;6.48;78.97;98461.31;5066829;28;19924;-56
2023/04/19 04:30:01;;;;;;;;;;;;;;;6.52;79.11;98459.69;5062773;28;19939;-58
2023/04/19 04:32:34;;;;;;;;;;;;;;;6.56;78.98;98464.28;5056451;28;19974;-55
2023/04/19 04:35:03;;;;;;;;;;;;;;;6.66;79.04;98463.47;5062874;28;20419;-57
2023/04/19 04:37:42;;;;;;;;;;;;;;;6.76;78.47;98468.00;5072263;28;20368;-57
2023/04/19 04:40:11;;;;;;;;;;;;;;;6.82;78.00;98462.34;5063252;28;19932;-56
2023/04/19 04:42:41;;;;;;;;;;;;;;;6.92;77.71;98455.28;5064152;28;19928;-57
2023/04/19 04:45:11;;;;;;;;;;;;;;;7.08;76.90;98452.28;5065556;28;19921;-56
2023/04/19 04:47:45;;;;;;;;;;;;;;;7.02;77.07;98449.88;5063418;28;19951;-56
2023/04/19 04:50:15;;;;;;;;;;;;;;;7.17;76.84;98451.72;5063298;28;19940;-57
2023/04/19 04:52:43;;;;;;;;;;;;;;;7.12;76.88;98454.44;5059772;28;19920;-58
2023/04/19 04:55:18;;;;;;;;;;;;;;;7.16;77.06;98450.91;5062669;28;19933;-57
2023/04/19 04:57:49;;;;;;;;;;;;;;;7.09;77.56;98450.41;5067306;28;19925;-56
2023/04/19 05:00:37;;;;;;;;;;;;;;;7.31;76.59;98444.66;5066327;28;20328;-57
2023/04/19 05:03:07;;;;;;;;;;;;;;;7.30;76.80;98451.94;5068486;28;19924;-56
2023/04/19 05:05:42;;;;;;;;;;;;;;;7.25;77.00;98454.66;5078833;28;20354;-57
2023/04/19 05:08:11;;;;;;;;;;;;;;;7.28;76.99;98451.41;5058824;28;20385;-57
2023/04/19 05:10:39;;;;;;;;;;;;;;;7.30;76.87;98449.25;5064648;28;19976;-56
2023/04/19 05:13:09;;;;;;;;;;;;;;;7.35;76.92;98443.00;5065777;28;19921;-57
2023/04/19 05:15:40;;;;;;;;;;;;;;;7.54;76.33;98438.56;5058253;28;19944;-57
2023/04/19 05:18:09;;;;;;;;;;;;;;;7.47;76.34;98445.38;5079194;28;19940;-56
2023/04/19 05:20:37;;;;;;;;;;;;;;;7.39;77.12;98448.66;5064552;28;19975;-57
2023/04/19 05:23:15;;;;;;;;;;;;;;;7.46;76.58;98444.59;5065042;28;19925;-57
2023/04/19 05:25:44;;;;;;;;;;;;;;;7.49;76.90;98443.19;5054783;28;20400;-57
2023/04/19 05:28:14;;;;;;;;;;;;;;;7.53;76.48;98439.66;5067903;28;20011;-56
2023/04/19 05:30:53;;;;;;;;;;;;;;;7.51;76.97;98439.16;5061654;28;20014;-57
2023/04/19 05:33:24;;;;;;;;;;;;;;;7.54;76.99;98435.88;5080847;28;20315;-57
2023/04/19 05:35:54;;;;;;;;;;;;;;;7.66;76.90;98432.03;5057915;28;19939;-58
2023/04/19 05:38:23;;;;;;;;;;;;;;;7.69;76.50;98429.56;5058404;28;19920;-56
2023/04/19 05:40:55;;;;;;;;;;;;;;;7.66;76.78;98429.31;5066485;28;19925;-59
2023/04/19 05:43:24;;;;;;;;;;;;;;;7.82;76.08;98431.66;5063063;28;20046;-57
2023/04/19 05:45:52;;;;;;;;;;;;;;;7.92;75.87;98433.47;5056218;28;19967;-56
2023/04/19 05:48:20;;;;;;;;;;;;;;;7.87;75.69;98434.31;5065181;28;19932;-56
2023/04/19 05:51:00;;;;;;;;;;;;;;;7.87;76.90;98438.94;5064669;28;19920;-54
2023/04/19 05:53:40;;;;;;;;;;;;;;;7.91;77.13;98431.06;5079650;28;19933;-55
2023/04/19 05:56:08;;;;;;;;;;;;;;;7.91;76.42;98436.47;5064286;28;19921;-56
2023/04/19 05:58:37;;;;;;;;;;;;;;;7.96;76.07;98433.72;5080766;28;19929;-55
2023/04/19 06:01:05;;;;;;;;;;;;;;;7.99;75.97;98433.16;5067390;28;19933;-55
2023/04/19 06:03:33;;;;;;;;;;;;;;;8.01;75.84;98428.28;5064037;28;19920;-55
2023/04/19 06:06:01;;;;;;;;;;;;;;;8.13;75.63;98426.03;5065421;28;20250;-57
2023/04/19 06:08:29;;;;;;;;;;;;;;;8.05;75.74;98429.34;5073694;28;20254;-55
2023/04/19 06:10:57;;;;;;;;;;;;;;;8.13;75.85;98423.31;5057219;28;19921;-55
2023/04/19 06:13:31;;;;;;;;;;;;;;;8.19;75.43;98426.78;5053487;28;19925;-55
2023/04/19 06:16:01;;;;;;;;;;;;;;;8.05;75.77;98427.44;5059630;28;19956;-56
2023/04/19 06:18:29;;;;;;;;;;;;;;;8.15;75.86;98426.56;5064796;28;20301;-55
2023/04/19 06:20:57;;;;;;;;;;;;;;;8.10;76.07;98429.31;5066309;28;19924;-55
2023/04/19 06:23:25;;;;;;;;;;;;;;;8.19;75.65;98422.19;5062642;28;20362;-55
2023/04/19 06:25:53;;;;;;;;;;;;;;;8.25;75.44;98418.34;5063653;28;19966;-55
2023/04/19 06:28:21;;;;;;;;;;;;;;;8.29;75.57;98424.00;5062954;28;20376;-56
2023/04/19 06:30:49;;;;;;;;;;;;;;;8.23;75.54;98419.72;5063744;28;19924;-57
2023/04/19 06:33:18;;;;;;;;;;;;;;;8.40;75.17;98423.66;5063245;28;19924;-57
2023/04/19 06:35:46;;;;;;;;;;;;;;;8.44;74.86;98423.09;5062097;28;19946;-55
2023/04/19 06:38:14;;;;;;;;;;;;;;;8.39;75.15;98422.03;5066334;28;19963;-56
2023/04/19 06:40:41;;;;;;;;;;;;;;;8.53;74.25;98424.91;5066373;28;20353;-55
2023/04/19 06:43:09;;;;;;;;;;;;;;;8.42;74.63;98417.19;5066229;28;19925;-56
2023/04/19 06:45:37;;;;;;;;;;;;;;;8.33;75.29;98415.03;5065699;28;19920;-55
2023/04/19 06:48:05;;;;;;;;;;;;;;;8.45;75.19;98408.47;5056404;28;19921;-56
2023/04/19 06:50:34;;;;;;;;;;;;;;;8.30;75.87;98404.75;5064068;28;19920;-59
2023/04/19 06:53:02;;;;;;;;;;;;;;;8.49;75.45;98406.81;5063056;28;19921;-56
2023/04/19 06:55:31;;;;;;;;;;;;;;;8.43;75.40;98408.75;5072427;28;19921;-57
2023/04/19 06:58:01;;;;;;;;;;;;;;;8.46;75.56;98401.94;5068999;28;19927;-56
2023/04/19 07:00:29;;;;;;;;;;;;;;;8.39;76.10;98405.81;5071379;28;19929;-55
2023/04/19 07:02:58;;;;;;;;;;;;;;;8.44;76.28;98404.16;5069328;28;19921;-57
2023/04/19 07:05:26;;;;;;;;;;;;;;;8.53;76.33;98397.03;5069526;28;19957;-57
2023/04/19 07:07:55;;;;;;;;;;;;;;;8.55;76.04;98401.06;5063266;28;19927;-57
2023/04/19 07:10:23;;;;;;;;;;;;;;;8.62;76.07;98398.81;5068395;28;19982;-55
2023/04/19 07:12:51;;;;;;;;;;;;;;;8.61;75.82;98401.81;5067918;28;19940;-59
2023/04/19 07:15:19;;;;;;;;;;;;;;;8.68;76.34;98393.34;5067352;28;19943;-56
2023/04/19 07:17:49;;;;;;;;;;;;;;;8.71;75.54;98388.16;5069154;28;19927;-60
2023/04/19 07:20:17;;;;;;;;;;;;;;;8.73;75.92;98377.03;5073745;28;19932;-57
2023/04/19 07:22:45;;;;;;;;;;;;;;;8.79;75.91;98374.00;5067372;28;20385;-56
2023/04/19 07:25:14;;;;;;;;;;;;;;;8.91;75.17;98366.25;5066905;28;19932;-57
2023/04/19 07:27:42;;;;;;;;;;;;;;;8.87;75.74;98370.63;5069522;28;19931;-57
2023/04/19 07:30:10;;;;;;;;;;;;;;;9.03;74.96;98367.75;5062351;28;19927;-57
2023/04/19 07:32:38;;;;;;;;;;;;;;;9.04;75.54;98370.16;5076505;28;19920;-56
2023/04/19 07:35:07;;;;;;;;;;;;;;;9.13;74.83;98370.34;5060700;28;19956;-56
2023/04/19 07:37:34;;;;;;;;;;;;;;;9.11;75.05;98364.41;5065882;28;19932;-55
2023/04/19 07:40:02;;;;;;;;;;;;;;;9.21;74.81;98371.59;5070876;28;19924;-58
2023/04/19 07:42:32;;;;;;;;;;;;;;;9.15;75.08;98366.22;5068068;28;19933;-55
2023/04/19 07:44:59;;;;;;;;;;;;;;;9.27;74.80;98365.00;5066775;28;19920;-56
2023/04/19 07:47:27;;;;;;;;;;;;;;;9.16;75.09;98359.72;5069288;28;19933;-56
2023/04/19 07:49:55;;;;;;;;;;;;;;;9.05;75.58;98363.66;5062854;28;19920;-57
2023/04/19 07:52:23;;;;;;;;;;;;;;;9.17;75.63;98360.53;5067025;28;20296;-56
2023/04/19 07:54:51;;;;;;;;;;;;;;;9.09;76.23;98367.41;5070014;28;19987;-56
2023/04/19 07:57:21;;;;;;;;;;;;;;;9.27;75.93;98354.97;5066621;28;19933;-56
2023/04/19 07:59:53;;;;;;;;;;;;;;;9.35;75.41;98359.75;5070682;28;20384;-57
2023/04/19 08:02:21;;;;;;;;;;;;;;;9.31;75.48;98358.69;5077697;28;19959;-56
2023/04/19 08:04:50;;;;;;;;;;;;;;;9.32;75.66;98359.50;5065200;28;19932;-59
2023/04/19 08:07:19;;;;;;;;;;;;;;;9.29;75.80;98363.63;5059807;28;19932;-56
2023/04/19 08:09:46;;;;;;;;;;;;;;;9.42;74.74;98356.66;5067315;28;20400;-57
2023/04/19 08:12:14;;;;;;;;;;;;;;;9.36;74.81;98355.13;5064020;28;19932;-55
2023/04/19 08:14:58;;;;;;;;;;;;;;;9.35;75.04;98353.50;5067036;28;20372;-56
2023/04/19 08:17:37;;;;;;;;;;;;;;;9.32;74.99;98354.09;5066014;28;19939;-56
2023/04/19 08:20:09;;;;;;;;;;;;;;;9.25;74.94;98359.88;5067118;28;19963;-57
2023/04/19 08:22:38;;;;;;;;;;;;;;;9.15;75.56;98354.59;5068987;28;19920;-56
2023/04/19 08:25:07;;;;;;;;;;;;;;;9.23;74.97;98353.94;5056755;28;19963;-56
2023/04/19 08:27:35;;;;;;;;;;;;;;;9.21;74.82;98356.13;5061146;28;19920;-57
2023/04/19 08:30:06;;;;;;;;;;;;;;;9.14;75.44;98351.06;5061417;28;20382;-56
2023/04/19 08:32:34;;;;;;;;;;;;;;;9.16;75.90;98358.91;5070624;28;19932;-56
2023/04/19 08:35:03;;;;;;;;;;;;;;;9.21;75.49;98358.84;5065166;28;19965;-57
2023/04/19 08:37:30;;;;;;;;;;;;;;;9.21;75.85;98358.84;5071821;28;19927;-56
2023/04/19 08:39:58;;;;;;;;;;;;;;;9.33;75.22;98366.56;5065947;28;19936;-57
2023/04/19 08:42:26;;;;;;;;;;;;;;;9.41;74.67;98364.00;5066665;28;19933;-56
2023/04/19 08:45:06;;;;;;;;;;;;;;;9.37;74.66;98371.09;5063437;28;19928;-57
2023/04/19 08:47:38;;;;;;;;;;;;;;;9.20;73.91;98373.50;5061149;28;19920;-55
2023/04/19 08:50:09;;;;;;;;;;;;;;;8.99;74.71;98377.56;5055345;28;20011;-55
2023/04/19 08:52:51;;;;;;;;;;;;;;;8.95;74.77;98376.50;5067322;28;19964;-67
2023/04/19 08:55:25;;;;;;;;;;;;;;;9.00;74.48;98369.16;5066525;28;20022;-56
2023/04/19 08:57:53;;;;;;;;;;;;;;;8.89;73.31;98368.47;5062977;28;19963;-54
2023/04/19 09:00:22;;;;;;;;;;;;;;;8.79;72.40;98371.28;5061596;28;19920;-54
2023/04/19 09:02:51;;;;;;;;;;;;;;;8.74;72.92;98365.94;5063707;28;19921;-55
2023/04/19 09:05:20;;;;;;;;;;;;;;;8.85;72.44;98378.25;5070852;28;19920;-55
2023/04/19 09:07:48;;;;;;;;;;;;;;;8.85;72.94;98366.63;5063254;28;19939;-55
2023/04/19 09:10:16;;;;;;;;;;;;;;;8.89;72.26;98368.47;5097643;28;19919;-55
2023/04/19 09:12:59;;;;;;;;;;;;;;;8.86;71.89;98369.03;5064431;28;19944;-55
2023/04/19 09:15:37;;;;;;;;;;;;;;;8.85;72.36;98367.44;5085102;28;19948;-55
2023/04/19 09:18:05;;;;;;;;;;;;;;;8.80;72.91;98370.19;5077797;28;19928;-55
2023/04/19 09:20:37;;;;;;;;;;;;;;;8.86;72.29;98366.31;5078704;28;19920;-55
2023/04/19 09:23:05;;;;;;;;;;;;;;;8.77;71.01;98368.03;5084745;28;19924;-56
2023/04/19 09:25:33;;;;;;;;;;;;;;;8.79;70.91;98365.03;5083631;28;20281;-55
2023/04/19 09:28:20;;;;;;;;;;;;;;;8.71;71.55;98363.78;5073175;28;19929;-55
2023/04/19 09:30:50;;;;;;;;;;;;;;;8.78;71.19;98366.94;5068545;28;19920;-56
2023/04/19 09:33:33;;;;;;;;;;;;;;;8.77;70.97;98362.63;5077702;28;20370;-55
2023/04/19 09:36:01;;;;;;;;;;;;;;;8.80;70.32;98364.78;5090325;28;19920;-55
2023/04/19 09:38:29;;;;;;;;;;;;;;;8.86;70.03;98352.78;5065588;28;19920;-56
2023/04/19 09:41:06;;;;;;;;;;;;;;;8.89;70.08;98348.66;5086978;28;20308;-55
2023/04/19 09:43:34;;;;;;;;;;;;;;;9.04;69.11;98353.91;5081934;28;19949;-55
2023/04/19 09:46:36;;;;;;;;;;;;;;;9.12;68.62;98352.47;5090027;28;20466;-55
2023/04/19 09:49:18;;;;;;;;;;;;;;;9.15;68.00;98343.75;5084197;28;20328;-55
2023/04/19 09:51:55;;;;;;;;;;;;;;;9.11;66.96;98348.16;5090343;28;19934;-55
2023/04/19 09:54:23;;;;;;;;;;;;;;;8.96;67.24;98351.84;5088290;28;19924;-55
2023/04/19 09:56:54;;;;;;;;;;;;;;;8.92;67.93;98346.19;5084432;28;19933;-56
2023/04/19 09:59:24;;;;;;;;;;;;;;;8.99;67.03;98331.47;5084980;28;19932;-55
2023/04/19 10:01:54;;;;;;;;;;;;;;;9.10;66.55;98332.97;5082839;28;20259;-59
2023/04/19 10:04:22;;;;;;;;;;;;;;;9.15;66.37;98330.19;5082652;28;20250;-56
2023/04/19 10:07:04;;;;;;;;;;;;;;;9.30;65.92;98335.41;5086772;28;20025;-56
2023/04/19 10:09:52;;;;;;;;;;;;;;;9.37;65.25;98330.41;5082196;28;19931;-57
2023/04/19 10:12:23;;;;;;;;;;;;;;;9.27;65.04;98333.28;5092983;28;19931;-57
2023/04/19 10:15:12;;;;;;;;;;;;;;;9.09;65.18;98328.66;5082175;28;19956;-55
2023/04/19 10:17:41;;;;;;;;;;;;;;;8.97;64.94;98325.56;5080111;28;19929;-56
2023/04/19 10:20:10;;;;;;;;;;;;;;;9.07;65.11;98330.84;5080551;28;20362;-57
2023/04/19 10:22:38;;;;;;;;;;;;;;;9.08;65.08;98332.47;5085146;28;19950;-55
2023/04/19 10:25:11;;;;;;;;;;;;;;;9.13;64.69;98333.19;5081645;28;19970;-56
2023/04/19 10:27:40;;;;;;;;;;;;;;;9.24;64.64;98338.47;5086533;28;19928;-55
2023/04/19 10:30:12;;;;;;;;;;;;;;;9.47;63.99;98320.53;5076586;28;19927;-58
2023/04/19 10:32:42;;;;;;;;;;;;;;;9.61;63.02;98307.84;5090628;28;19924;-57
2023/04/19 10:35:10;;;;;;;;;;;;;;;9.82;62.21;98301.00;5066666;28;19924;-55
2023/04/19 10:37:40;;;;;;;;;;;;;;;10.42;60.58;98301.03;5092285;28;19920;-55
2023/04/19 10:40:09;;;;;;;;;;;;;;;10.92;59.36;98298.44;5074470;28;19920;-56
2023/04/19 10:42:55;;;;;;;;;;;;;;;10.75;57.58;98290.88;5092173;28;19927;-55
2023/04/19 10:45:33;;;;;;;;;;;;;;;11.06;57.11;98292.16;5086904;28;20265;-55
2023/04/19 10:48:04;;;;;;;;;;;;;;;11.19;56.19;98286.72;5081172;28;19920;-58
2023/04/19 10:50:47;;;;;;;;;;;;;;;10.84;55.20;98288.25;5085706;28;19920;-55
2023/04/19 10:53:33;;;;;;;;;;;;;;;10.75;54.40;98287.34;5077271;28;19927;-55
2023/04/19 10:56:01;;;;;;;;;;;;;;;10.83;51.84;98275.78;5066839;28;20284;-57
2023/04/19 10:58:29;;;;;;;;;;;;;;;11.13;52.35;98276.22;5091145;28;19920;-54
2023/04/19 11:01:12;;;;;;;;;;;;;;;11.30;51.48;98270.97;5086958;28;19920;-57
2023/04/19 11:03:53;;;;;;;;;;;;;;;11.36;51.90;98267.00;5088505;28;20341;-55
2023/04/19 11:06:25;;;;;;;;;;;;;;;11.20;52.21;98271.19;5089294;28;20592;-55
2023/04/19 11:08:55;;;;;;;;;;;;;;;11.27;52.09;98277.00;5084473;28;19965;-55
2023/04/19 11:11:24;;;;;;;;;;;;;;;11.34;52.01;98271.94;5098973;28;19974;-57
2023/04/19 11:13:52;;;;;;;;;;;;;;;11.43;51.19;98256.50;5069578;28;19939;-59
2023/04/19 11:16:19;;;;;;;;;;;;;;;11.56;50.90;98257.56;5071351;28;19921;-56
2023/04/19 11:18:54;;;;;;;;;;;;;;;12.00;50.61;98251.31;5090584;28;19962;-56
2023/04/19 11:21:22;;;;;;;;;;;;;;;12.03;48.89;98228.88;5088230;28;19931;-56
2023/04/19 11:24:05;;;;;;;;;;;;;;;12.11;48.28;98235.50;5071578;28;19920;-55
2023/04/19 11:26:33;;;;;;;;;;;;;;;12.12;47.01;98230.88;5086500;28;19921;-56
2023/04/19 11:29:01;;;;;;;;;;;;;;;12.06;47.54;98224.75;5091887;28;19920;-55
2023/04/19 11:31:29;;;;;;;;;;;;;;;12.00;46.15;98217.84;5060015;28;19929;-55
2023/04/19 11:33:59;;;;;;;;;;;;;;;11.67;46.77;98234.44;5087017;28;19950;-55
2023/04/19 11:36:28;;;;;;;;;;;;;;;11.58;46.67;98222.69;5088639;28;19946;-56
2023/04/19 11:38:55;;;;;;;;;;;;;;;11.78;46.51;98224.09;5078467;28;19939;-56
2023/04/19 11:41:23;;;;;;;;;;;;;;;12.15;45.48;98227.53;5090753;28;19924;-55
2023/04/19 11:43:51;;;;;;;;;;;;;;;12.04;45.04;98222.34;5066940;28;19924;-61
2023/04/19 11:46:19;;;;;;;;;;;;;;;12.03;46.07;98212.56;5083501;28;19920;-55
2023/04/19 11:48:50;;;;;;;;;;;;;;;12.13;45.47;98205.22;5086530;28;20011;-56
2023/04/19 11:51:20;;;;;;;;;;;;;;;12.11;45.00;98207.47;5089159;28;19942;-56
2023/04/19 11:53:47;;;;;;;;;;;;;;;12.19;45.27;98201.25;5080924;28;20012;-58
2023/04/19 11:56:24;;;;;;;;;;;;;;;12.56;45.29;98191.75;5084428;28;19920;-58
2023/04/19 11:58:52;;;;;;;;;;;;;;;12.70;44.77;98180.72;5094946;28;20423;-57
2023/04/19 12:01:20;;;;;;;;;;;;;;;12.86;43.83;98179.13;5088878;28;19928;-55
2023/04/19 12:03:48;;;;;;;;;;;;;;;12.97;43.88;98183.16;5079358;28;19998;-61
2023/04/19 12:06:17;;;;;;;;;;;;;;;12.79;42.63;98187.81;5068218;28;19920;-56
2023/04/19 12:08:48;;;;;;;;;;;;;;;12.30;42.13;98189.78;5086782;28;19926;-56
2023/04/19 12:11:17;;;;;;;;;;;;;;;12.17;42.72;98192.59;5097404;28;19924;-59
2023/04/19 12:13:45;;;;;;;;;;;;;;;11.86;42.35;98179.00;5088425;28;19920;-57
2023/04/19 12:16:16;;;;;;;;;;;;;;;12.04;41.11;98181.50;5081307;28;19985;-56
2023/04/19 12:18:48;;;;;;;;;;;;;;;12.12;39.40;98176.41;5086928;28;19924;-56
2023/04/19 12:21:26;;;;;;;;;;;;;;;12.24;40.55;98179.31;5072437;28;19923;-55
2023/04/19 12:23:57;;;;;;;;;;;;;;;12.37;40.39;98181.13;5090932;28;20353;-56
2023/04/19 12:26:25;;;;;;;;;;;;;;;12.50;40.35;98168.50;5089531;28;20450;-57
2023/04/19 12:28:53;;;;;;;;;;;;;;;12.65;39.43;98169.97;5086781;28;20407;-56
2023/04/19 12:31:21;;;;;;;;;;;;;;;12.62;38.34;98167.88;5085576;28;19932;-59
2023/04/19 12:33:49;;;;;;;;;;;;;;;12.20;38.81;98165.53;5084693;28;20289;-55
2023/04/19 12:36:20;;;;;;;;;;;;;;;12.14;38.30;98163.25;5085215;28;19932;-55
2023/04/19 12:38:48;;;;;;;;;;;;;;;11.98;37.66;98154.69;5081085;28;19931;-56
2023/04/19 12:41:18;;;;;;;;;;;;;;;11.76;37.75;98164.50;5086045;28;19928;-55
2023/04/19 12:43:45;;;;;;;;;;;;;;;12.00;37.67;98166.91;5086213;28;19924;-55
2023/04/19 12:46:13;;;;;;;;;;;;;;;12.00;37.77;98164.19;5064259;28;19942;-57
2023/04/19 12:48:41;;;;;;;;;;;;;;;12.22;37.15;98155.13;5085166;28;19921;-55
2023/04/19 12:51:09;;;;;;;;;;;;;;;12.34;36.23;98149.06;5085861;28;19927;-56
2023/04/19 12:53:37;;;;;;;;;;;;;;;12.22;35.96;98163.28;5064851;28;19943;-56
2023/04/19 12:56:06;;;;;;;;;;;;;;;11.98;36.14;98160.16;5066747;28;19920;-55
2023/04/19 12:58:35;;;;;;;;;;;;;;;11.73;33.88;98164.34;5086756;28;19962;-57
2023/04/19 13:01:03;;;;;;;;;;;;;;;11.91;33.48;98166.06;5066138;28;19953;-56
2023/04/19 13:03:31;;;;;;;;;;;;;;;11.97;32.88;98167.50;5068665;28;19921;-55
2023/04/19 13:05:59;;;;;;;;;;;;;;;11.96;33.00;98157.75;5087379;28;20364;-56
2023/04/19 13:08:27;;;;;;;;;;;;;;;12.05;33.14;98163.25;5083917;28;19920;-55
2023/04/19 13:11:11;;;;;;;;;;;;;;;12.01;31.98;98156.81;5092109;28;20357;-55